Time;durP1;ratioP1;P1;durP2;ratioP2;P2;SDS_P1;SDS_P2;PMS_P1;PMS_P2;Temp;Humidity;BMP_temperature;BMP_pressure;BME280_temperature;BME280_humidity;BME280_pressure;Samples;Min_cycle;Max_cycle;Signal;HPM_P1;HPM_P2
2021/07/09 00:02:03;;;;;;;;;;;;;;;;;;5092656;28;20033;-65
2021/07/09 00:04:30;;;;;;;;;;;;;;;;;;5086836;28;19924;-66
2021/07/09 00:06:57;;;;;;;;;;;;;;;;;;5092907;28;19924;-66
2021/07/09 00:09:24;;;;;;;;;;;;;;;;;;5084173;28;19932;-67
2021/07/09 00:11:51;;;;;;;;;;;;;;;;;;5075155;28;19935;-66
2021/07/09 00:14:18;;;;;;;;;;;;;;;;;;5082370;28;20202;-66
2021/07/09 00:16:45;;;;;;;;;;;;;;;;;;5077601;28;19925;-66
2021/07/09 00:19:12;;;;;;;;;;;;;;;;;;5083669;28;19938;-66
2021/07/09 00:21:38;;;;;;;;;;;;;;;;;;5085385;28;19925;-66
2021/07/09 00:24:06;;;;;;;;;;;;;;;;;;5081271;28;20274;-66
2021/07/09 00:26:33;;;;;;;;;;;;;;;;;;5086356;28;19925;-65
2021/07/09 00:29:00;;;;;;;;;;;;;;;;;;5086926;28;19943;-66
2021/07/09 00:31:29;;;;;;;;;;;;;;;;;;5088343;28;20310;-66
2021/07/09 00:33:56;;;;;;;;;;;;;;;;;;5085388;28;22236;-66
2021/07/09 00:36:23;;;;;;;;;;;;;;;;;;5086294;28;19935;-65
2021/07/09 00:38:50;;;;;;;;;;;;;;;;;;5085278;28;19924;-65
2021/07/09 00:41:17;;;;;;;;;;;;;;;;;;5087935;28;19930;-65
2021/07/09 00:43:44;;;;;;;;;;;;;;;;;;5085546;28;19947;-66
2021/07/09 00:46:10;;;;;;;;;;;;;;;;;;5086120;28;19931;-65
2021/07/09 00:48:37;;;;;;;;;;;;;;;;;;5085577;28;19924;-66
2021/07/09 00:51:04;;;;;;;;;;;;;;;;;;5088385;28;19930;-65
2021/07/09 00:53:31;;;;;;;;;;;;;;;;;;5088462;28;19924;-66
2021/07/09 00:55:58;;;;;;;;;;;;;;;;;;5089430;28;20413;-65
2021/07/09 00:58:25;;;;;;;;;;;;;;;;;;5091641;28;19924;-64
2021/07/09 01:00:52;;;;;;;;;;;;;;;;;;5090408;28;19928;-65
2021/07/09 01:03:19;;;;;;;;;;;;;;;;;;5093397;28;19995;-64
2021/07/09 01:05:46;;;;;;;;;;;;;;;;;;5083570;28;19924;-64
2021/07/09 01:08:13;;;;;;;;;;;;;;;;;;5082717;28;21410;-64
2021/07/09 01:10:40;;;;;;;;;;;;;;;;;;5088858;28;19924;-64
2021/07/09 01:13:07;;;;;;;;;;;;;;;;;;5089568;28;19925;-65
2021/07/09 01:15:34;;;;;;;;;;;;;;;;;;5094700;28;19931;-65
2021/07/09 01:18:01;;;;;;;;;;;;;;;;;;5082964;28;19925;-65
2021/07/09 01:20:28;;;;;;;;;;;;;;;;;;5081977;28;20027;-66
2021/07/09 01:22:55;;;;;;;;;;;;;;;;;;5081306;28;20282;-65
2021/07/09 01:25:22;;;;;;;;;;;;;;;;;;5083904;28;20294;-65
2021/07/09 01:27:49;;;;;;;;;;;;;;;;;;5091580;28;19930;-64
2021/07/09 01:30:16;;;;;;;;;;;;;;;;;;5085900;28;19925;-64
2021/07/09 01:32:43;;;;;;;;;;;;;;;;;;5086074;28;19943;-65
2021/07/09 01:35:10;;;;;;;;;;;;;;;;;;5085293;28;20319;-65
2021/07/09 01:37:37;;;;;;;;;;;;;;;;;;5074802;28;19924;-63
2021/07/09 01:40:04;;;;;;;;;;;;;;;;;;5078925;28;19931;-64
2021/07/09 01:42:31;;;;;;;;;;;;;;;;;;5088913;28;19924;-66
2021/07/09 01:44:58;;;;;;;;;;;;;;;;;;5083264;28;19924;-66
2021/07/09 01:47:25;;;;;;;;;;;;;;;;;;5088873;28;20033;-63
2021/07/09 01:49:52;;;;;;;;;;;;;;;;;;5082413;28;19924;-63
2021/07/09 01:52:19;;;;;;;;;;;;;;;;;;5085843;28;19931;-66
2021/07/09 01:54:45;;;;;;;;;;;;;;;;;;5082676;28;19924;-64
2021/07/09 01:57:12;;;;;;;;;;;;;;;;;;5085816;28;19956;-66
2021/07/09 01:59:39;;;;;;;;;;;;;;;;;;5081608;28;19924;-64
2021/07/09 02:02:06;;;;;;;;;;;;;;;;;;5087928;28;19924;-64
2021/07/09 02:04:33;;;;;;;;;;;;;;;;;;5081734;28;19924;-65
2021/07/09 02:07:00;;;;;;;;;;;;;;;;;;5085077;28;19931;-64
2021/07/09 02:09:27;;;;;;;;;;;;;;;;;;5089356;28;19946;-66
2021/07/09 02:11:54;;;;;;;;;;;;;;;;;;5085449;28;19924;-65
2021/07/09 02:14:21;;;;;;;;;;;;;;;;;;5082862;28;19925;-65
2021/07/09 02:16:48;;;;;;;;;;;;;;;;;;5086623;28;19924;-64
2021/07/09 02:19:15;;;;;;;;;;;;;;;;;;5075937;28;19946;-65
2021/07/09 02:21:42;;;;;;;;;;;;;;;;;;5076212;28;20133;-66
2021/07/09 02:24:09;;;;;;;;;;;;;;;;;;5080321;28;19924;-66
2021/07/09 02:26:36;;;;;;;;;;;;;;;;;;5080539;28;19924;-65
2021/07/09 02:29:03;;;;;;;;;;;;;;;;;;5087696;28;20380;-63
2021/07/09 02:31:30;;;;;;;;;;;;;;;;;;5087659;28;19924;-65
2021/07/09 02:33:57;;;;;;;;;;;;;;;;;;5090284;28;19930;-66
2021/07/09 02:36:24;;;;;;;;;;;;;;;;;;5087283;28;20303;-66
2021/07/09 02:38:51;;;;;;;;;;;;;;;;;;5088543;28;19924;-66
2021/07/09 02:41:18;;;;;;;;;;;;;;;;;;5087842;28;19931;-66
2021/07/09 02:43:46;;;;;;;;;;;;;;;;;;5089861;28;19931;-65
2021/07/09 02:46:13;;;;;;;;;;;;;;;;;;5087703;28;20026;-65
2021/07/09 02:48:40;;;;;;;;;;;;;;;;;;5082343;28;20419;-66
2021/07/09 02:51:07;;;;;;;;;;;;;;;;;;5086351;28;20295;-65
2021/07/09 02:53:34;;;;;;;;;;;;;;;;;;5085948;28;19932;-66
2021/07/09 02:56:01;;;;;;;;;;;;;;;;;;5083488;28;19932;-66
2021/07/09 02:58:29;;;;;;;;;;;;;;;;;;5088394;28;19930;-65
2021/07/09 03:00:56;;;;;;;;;;;;;;;;;;5083847;28;19932;-65
2021/07/09 03:03:23;;;;;;;;;;;;;;;;;;5085347;28;19951;-66
2021/07/09 03:05:50;;;;;;;;;;;;;;;;;;5081284;28;19925;-65
2021/07/09 03:08:17;;;;;;;;;;;;;;;;;;5083113;28;19924;-66
2021/07/09 03:10:44;;;;;;;;;;;;;;;;;;5087189;28;19931;-66
2021/07/09 03:13:11;;;;;;;;;;;;;;;;;;5087923;28;20348;-65
2021/07/09 03:15:38;;;;;;;;;;;;;;;;;;5084166;28;19924;-65
2021/07/09 03:18:05;;;;;;;;;;;;;;;;;;5078244;28;19928;-66
2021/07/09 03:20:32;;;;;;;;;;;;;;;;;;5084304;28;19924;-66
2021/07/09 03:22:59;;;;;;;;;;;;;;;;;;5083370;28;19934;-65
2021/07/09 03:25:26;;;;;;;;;;;;;;;;;;5081594;28;19924;-66
2021/07/09 03:27:53;;;;;;;;;;;;;;;;;;5087418;28;20404;-65
2021/07/09 03:30:20;;;;;;;;;;;;;;;;;;5078308;28;20296;-66
2021/07/09 03:32:47;;;;;;;;;;;;;;;;;;5082538;28;21035;-66
2021/07/09 03:35:14;;;;;;;;;;;;;;;;;;5100541;22;20339;-71
2021/07/09 03:37:41;;;;;;;;;;;;;;;;;;5083333;28;20383;-71
2021/07/09 03:40:08;;;;;;;;;;;;;;;;;;5085993;28;19931;-72
2021/07/09 03:42:35;;;;;;;;;;;;;;;;;;5087046;28;19934;-72
2021/07/09 03:45:02;;;;;;;;;;;;;;;;;;5082187;28;20370;-71
2021/07/09 03:47:29;;;;;;;;;;;;;;;;;;5066910;28;19924;-71
2021/07/09 03:49:56;;;;;;;;;;;;;;;;;;5070411;28;19924;-71
2021/07/09 03:52:23;;;;;;;;;;;;;;;;;;5069582;28;19929;-72
2021/07/09 03:54:50;;;;;;;;;;;;;;;;;;5066113;28;20249;-70
2021/07/09 03:57:17;;;;;;;;;;;;;;;;;;5069554;28;20307;-72
2021/07/09 03:59:44;;;;;;;;;;;;;;;;;;5064013;28;19956;-72
2021/07/09 04:02:11;;;;;;;;;;;;;;;;;;5069446;28;19925;-72
2021/07/09 04:04:38;;;;;;;;;;;;;;;;;;5071501;28;19932;-72
2021/07/09 04:07:05;;;;;;;;;;;;;;;;;;5073135;28;19935;-72
2021/07/09 04:09:32;;;;;;;;;;;;;;;;;;5080504;28;19932;-72
2021/07/09 04:11:59;;;;;;;;;;;;;;;;;;5073856;28;20396;-72
2021/07/09 04:14:26;;;;;;;;;;;;;;;;;;5071494;28;20289;-72
2021/07/09 04:16:53;;;;;;;;;;;;;;;;;;5070824;28;19935;-71
2021/07/09 04:19:19;;;;;;;;;;;;;;;;;;5071309;28;20027;-71
2021/07/09 04:21:47;;;;;;;;;;;;;;;;;;5068921;28;19933;-72
2021/07/09 04:24:14;;;;;;;;;;;;;;;;;;5071582;28;19931;-71
2021/07/09 04:26:41;;;;;;;;;;;;;;;;;;5071408;28;20303;-72
2021/07/09 04:29:08;;;;;;;;;;;;;;;;;;5070045;28;19974;-72
2021/07/09 04:31:35;;;;;;;;;;;;;;;;;;5070932;28;19975;-72
2021/07/09 04:34:02;;;;;;;;;;;;;;;;;;5070286;28;19925;-71
2021/07/09 04:36:29;;;;;;;;;;;;;;;;;;5071473;28;19924;-71
2021/07/09 04:38:56;;;;;;;;;;;;;;;;;;5070583;28;19939;-71
2021/07/09 04:41:23;;;;;;;;;;;;;;;;;;5071364;28;19935;-71
2021/07/09 04:43:50;;;;;;;;;;;;;;;;;;5069889;28;19925;-71
2021/07/09 04:46:17;;;;;;;;;;;;;;;;;;5070411;28;19924;-73
2021/07/09 04:48:44;;;;;;;;;;;;;;;;;;5070787;28;19925;-72
2021/07/09 04:51:11;;;;;;;;;;;;;;;;;;5074158;28;19936;-72
2021/07/09 04:53:38;;;;;;;;;;;;;;;;;;5082607;28;19924;-72
2021/07/09 04:56:05;;;;;;;;;;;;;;;;;;5072463;28;20380;-72
2021/07/09 04:58:32;;;;;;;;;;;;;;;;;;5070867;28;19974;-71
2021/07/09 05:00:58;;;;;;;;;;;;;;;;;;5069734;28;19924;-72
2021/07/09 05:03:25;;;;;;;;;;;;;;;;;;5068848;28;20398;-72
2021/07/09 05:05:52;;;;;;;;;;;;;;;;;;5072749;28;19932;-71
2021/07/09 05:08:19;;;;;;;;;;;;;;;;;;5071013;28;19924;-72
2021/07/09 05:10:46;;;;;;;;;;;;;;;;;;5069146;28;19928;-73
2021/07/09 05:13:13;;;;;;;;;;;;;;;;;;5069957;28;20007;-72
2021/07/09 05:15:43;;;;;;;;;;;;;;;;;;5068730;28;19940;-72
2021/07/09 05:18:10;;;;;;;;;;;;;;;;;;5065225;28;20019;-71
2021/07/09 05:20:37;;;;;;;;;;;;;;;;;;5070158;28;19924;-70
2021/07/09 05:23:05;;;;;;;;;;;;;;;;;;5070379;28;19924;-70
2021/07/09 05:25:32;;;;;;;;;;;;;;;;;;5072186;28;20399;-70
2021/07/09 05:27:59;;;;;;;;;;;;;;;;;;5071356;28;19924;-72
2021/07/09 05:30:26;;;;;;;;;;;;;;;;;;5071706;28;19931;-73
2021/07/09 05:32:55;;;;;;;;;;;;;;;;;;5072677;28;19971;-72
2021/07/09 05:35:22;;;;;;;;;;;;;;;;;;5076811;28;19925;-71
2021/07/09 05:37:49;;;;;;;;;;;;;;;;;;5077720;28;20035;-71
2021/07/09 05:40:15;;;;;;;;;;;;;;;;;;5076661;28;19932;-71
2021/07/09 05:42:44;;;;;;;;;;;;;;;;;;5081327;28;20534;-71
2021/07/09 05:45:11;;;;;;;;;;;;;;;;;;5073176;28;19971;-71
2021/07/09 05:47:38;;;;;;;;;;;;;;;;;;5073323;28;19942;-71
2021/07/09 05:50:05;;;;;;;;;;;;;;;;;;5073224;28;19931;-72
2021/07/09 05:52:32;;;;;;;;;;;;;;;;;;5068926;28;19947;-71
2021/07/09 05:54:59;;;;;;;;;;;;;;;;;;5060078;28;19931;-72
2021/07/09 05:57:26;;;;;;;;;;;;;;;;;;5065667;28;19932;-71
2021/07/09 05:59:53;;;;;;;;;;;;;;;;;;5065085;28;19925;-69
2021/07/09 06:02:20;;;;;;;;;;;;;;;;;;5064388;28;20391;-69
2021/07/09 06:04:47;;;;;;;;;;;;;;;;;;5066717;28;20308;-70
2021/07/09 06:07:14;;;;;;;;;;;;;;;;;;5064624;28;19948;-70
2021/07/09 06:09:41;;;;;;;;;;;;;;;;;;5066843;28;19924;-70
2021/07/09 06:12:08;;;;;;;;;;;;;;;;;;5064538;28;19935;-70
2021/07/09 06:14:35;;;;;;;;;;;;;;;;;;5065444;28;20411;-70
2021/07/09 06:17:02;;;;;;;;;;;;;;;;;;5064335;28;19933;-69
2021/07/09 06:19:29;;;;;;;;;;;;;;;;;;5064111;28;20376;-69
2021/07/09 06:21:56;;;;;;;;;;;;;;;;;;5067813;28;19924;-70
2021/07/09 06:24:23;;;;;;;;;;;;;;;;;;5063478;28;20379;-70
2021/07/09 06:26:50;;;;;;;;;;;;;;;;;;5070538;28;20387;-70
2021/07/09 06:29:17;;;;;;;;;;;;;;;;;;5070019;28;19928;-70
2021/07/09 06:31:44;;;;;;;;;;;;;;;;;;5069236;28;19931;-70
2021/07/09 06:34:11;;;;;;;;;;;;;;;;;;5067546;28;19933;-69
2021/07/09 06:36:38;;;;;;;;;;;;;;;;;;5068368;28;19932;-70
2021/07/09 06:39:05;;;;;;;;;;;;;;;;;;5061704;28;19940;-70
2021/07/09 06:41:32;;;;;;;;;;;;;;;;;;5067997;28;19928;-70
2021/07/09 06:44:00;;;;;;;;;;;;;;;;;;5062528;28;19932;-70
2021/07/09 06:46:26;;;;;;;;;;;;;;;;;;5066420;28;19925;-70
2021/07/09 06:48:54;;;;;;;;;;;;;;;;;;5055233;28;20133;-69
2021/07/09 06:51:21;;;;;;;;;;;;;;;;;;5061347;28;19932;-70
2021/07/09 06:53:48;;;;;;;;;;;;;;;;;;5066815;28;19932;-70
2021/07/09 06:56:15;;;;;;;;;;;;;;;;;;5064428;28;20343;-70
2021/07/09 06:58:42;;;;;;;;;;;;;;;;;;5054131;28;19968;-70
2021/07/09 07:01:09;;;;;;;;;;;;;;;;;;5061025;28;20311;-69
2021/07/09 07:03:36;;;;;;;;;;;;;;;;;;5058118;28;20023;-70
2021/07/09 07:09:00;;;;;;;;;;;;;;;;;;5062486;28;19987;-70
2021/07/09 07:11:27;;;;;;;;;;;;;;;;;;5076319;28;19932;-72
2021/07/09 07:13:54;;;;;;;;;;;;;;;;;;5071690;28;19983;-72
2021/07/09 07:16:21;;;;;;;;;;;;;;;;;;5062700;28;19925;-72
2021/07/09 07:18:48;;;;;;;;;;;;;;;;;;5065537;28;19931;-72
2021/07/09 07:21:15;;;;;;;;;;;;;;;;;;5065113;28;19925;-72
2021/07/09 07:23:42;;;;;;;;;;;;;;;;;;5069425;28;20400;-72
2021/07/09 07:26:09;;;;;;;;;;;;;;;;;;5071935;28;19928;-72
2021/07/09 07:28:36;;;;;;;;;;;;;;;;;;5070377;28;19924;-72
2021/07/09 07:31:03;;;;;;;;;;;;;;;;;;5072784;28;19940;-72
2021/07/09 07:33:30;;;;;;;;;;;;;;;;;;5070749;28;19928;-71
2021/07/09 07:35:57;;;;;;;;;;;;;;;;;;5067491;28;19925;-71
2021/07/09 07:38:24;;;;;;;;;;;;;;;;;;5070406;28;19924;-68
2021/07/09 07:40:51;;;;;;;;;;;;;;;;;;5074213;28;19925;-69
2021/07/09 07:43:18;;;;;;;;;;;;;;;;;;5068357;28;19924;-68
2021/07/09 07:45:45;;;;;;;;;;;;;;;;;;5066721;28;19932;-68
2021/07/09 07:48:12;;;;;;;;;;;;;;;;;;5072612;28;19935;-65
2021/07/09 07:50:39;;;;;;;;;;;;;;;;;;5070351;28;19974;-69
2021/07/09 07:53:06;;;;;;;;;;;;;;;;;;5066263;28;19925;-70
2021/07/09 07:55:35;;;;;;;;;;;;;;;;;;5070886;28;19924;-71
2021/07/09 07:58:02;;;;;;;;;;;;;;;;;;5070230;28;19925;-70
2021/07/09 08:00:29;;;;;;;;;;;;;;;;;;5069542;28;19951;-69
2021/07/09 08:02:56;;;;;;;;;;;;;;;;;;5067946;28;20007;-69
2021/07/09 08:05:26;;;;;;;;;;;;;;;;;;5066635;28;19932;-68
2021/07/09 08:07:54;;;;;;;;;;;;;;;;;;5067883;28;20016;-70
2021/07/09 08:10:23;;;;;;;;;;;;;;;;;;5065967;28;20069;-71
2021/07/09 08:12:50;;;;;;;;;;;;;;;;;;5067470;28;19925;-70
2021/07/09 08:15:17;;;;;;;;;;;;;;;;;;5068032;28;20652;-70
2021/07/09 08:17:44;;;;;;;;;;;;;;;;;;5068948;28;19942;-69
2021/07/09 08:20:11;;;;;;;;;;;;;;;;;;5068493;28;19924;-70
2021/07/09 08:22:38;;;;;;;;;;;;;;;;;;5068417;28;19925;-70
2021/07/09 08:25:04;;;;;;;;;;;;;;;;;;5068138;28;19925;-69
2021/07/09 08:27:31;;;;;;;;;;;;;;;;;;5070823;28;19931;-69
2021/07/09 08:29:58;;;;;;;;;;;;;;;;;;5065208;28;19929;-69
2021/07/09 08:32:25;;;;;;;;;;;;;;;;;;5067126;28;19924;-69
2021/07/09 08:34:54;;;;;;;;;;;;;;;;;;5062487;28;19925;-69
2021/07/09 08:37:21;;;;;;;;;;;;;;;;;;5066614;28;19928;-69
2021/07/09 08:39:48;;;;;;;;;;;;;;;;;;5068589;28;20386;-69
2021/07/09 08:42:15;;;;;;;;;;;;;;;;;;5072091;28;19943;-68
2021/07/09 08:44:42;;;;;;;;;;;;;;;;;;5081978;28;19928;-69
2021/07/09 08:47:09;;;;;;;;;;;;;;;;;;5067438;28;19959;-69
2021/07/09 08:49:35;;;;;;;;;;;;;;;;;;5067125;28;19932;-69
2021/07/09 08:52:02;;;;;;;;;;;;;;;;;;5066070;28;19924;-68
2021/07/09 08:54:29;;;;;;;;;;;;;;;;;;5069865;28;20369;-68
2021/07/09 08:56:56;;;;;;;;;;;;;;;;;;5064984;28;20308;-68
2021/07/09 08:59:23;;;;;;;;;;;;;;;;;;5068426;28;19933;-69
2021/07/09 09:01:50;;;;;;;;;;;;;;;;;;5068307;28;19931;-69
2021/07/09 09:04:17;;;;;;;;;;;;;;;;;;5068951;28;20073;-68
2021/07/09 09:06:44;;;;;;;;;;;;;;;;;;5066621;28;19931;-69
2021/07/09 09:09:11;;;;;;;;;;;;;;;;;;5068648;28;19925;-69
2021/07/09 09:11:38;;;;;;;;;;;;;;;;;;5070916;28;19951;-69
2021/07/09 09:14:05;;;;;;;;;;;;;;;;;;5073473;28;19933;-69
2021/07/09 09:16:32;;;;;;;;;;;;;;;;;;5071808;28;19932;-69
2021/07/09 09:18:59;;;;;;;;;;;;;;;;;;5074086;28;19925;-69
2021/07/09 09:21:26;;;;;;;;;;;;;;;;;;5069339;28;20407;-69
2021/07/09 09:23:53;;;;;;;;;;;;;;;;;;5067909;28;19924;-69
2021/07/09 09:26:20;;;;;;;;;;;;;;;;;;5070623;28;20379;-69
2021/07/09 09:28:47;;;;;;;;;;;;;;;;;;5085083;28;19952;-69
2021/07/09 09:31:14;;;;;;;;;;;;;;;;;;5074265;28;20416;-69
2021/07/09 09:33:41;;;;;;;;;;;;;;;;;;5064387;28;19924;-69
2021/07/09 09:36:08;;;;;;;;;;;;;;;;;;5064361;28;20273;-68
2021/07/09 09:38:35;;;;;;;;;;;;;;;;;;5068951;28;19978;-69
2021/07/09 09:41:02;;;;;;;;;;;;;;;;;;5067809;28;19931;-69
2021/07/09 09:43:29;;;;;;;;;;;;;;;;;;5069045;28;20023;-69
2021/07/09 09:45:56;;;;;;;;;;;;;;;;;;5067177;28;19925;-69
2021/07/09 09:48:23;;;;;;;;;;;;;;;;;;5067587;28;19925;-69
2021/07/09 09:50:50;;;;;;;;;;;;;;;;;;5068409;28;20311;-69
2021/07/09 09:53:17;;;;;;;;;;;;;;;;;;5073464;28;19948;-69
2021/07/09 09:55:44;;;;;;;;;;;;;;;;;;5071222;28;19946;-68
2021/07/09 09:58:11;;;;;;;;;;;;;;;;;;5073698;28;20020;-70
2021/07/09 10:00:38;;;;;;;;;;;;;;;;;;5067006;28;20295;-68
2021/07/09 10:03:05;;;;;;;;;;;;;;;;;;5067518;28;19925;-68
2021/07/09 10:05:32;;;;;;;;;;;;;;;;;;5069618;28;20307;-68
2021/07/09 10:07:59;;;;;;;;;;;;;;;;;;5070898;28;19933;-68
2021/07/09 10:10:26;;;;;;;;;;;;;;;;;;5070154;28;19925;-68
2021/07/09 10:12:53;;;;;;;;;;;;;;;;;;5083166;28;19942;-68
2021/07/09 10:15:20;;;;;;;;;;;;;;;;;;5077685;28;20016;-68
2021/07/09 10:17:47;;;;;;;;;;;;;;;;;;5067380;28;19925;-68
2021/07/09 10:20:14;;;;;;;;;;;;;;;;;;5065138;28;19930;-68
2021/07/09 10:22:41;;;;;;;;;;;;;;;;;;5068260;28;19924;-68
2021/07/09 10:25:08;;;;;;;;;;;;;;;;;;5069738;28;20407;-68
2021/07/09 10:27:35;;;;;;;;;;;;;;;;;;5065870;28;20585;-67
2021/07/09 10:30:03;;;;;;;;;;;;;;;;;;5065532;28;19925;-67
2021/07/09 10:32:30;;;;;;;;;;;;;;;;;;5065673;28;20058;-67
2021/07/09 10:34:57;;;;;;;;;;;;;;;;;;5067181;28;19934;-68
2021/07/09 10:37:28;;;;;;;;;;;;;;;;;;5065268;28;20015;-68
2021/07/09 10:39:55;;;;;;;;;;;;;;;;;;5071696;28;19947;-69
2021/07/09 10:42:23;;;;;;;;;;;;;;;;;;5067678;28;19961;-69
2021/07/09 10:44:49;;;;;;;;;;;;;;;;;;5064380;28;19932;-68
2021/07/09 10:47:16;;;;;;;;;;;;;;;;;;5063667;28;19924;-68
2021/07/09 10:49:43;;;;;;;;;;;;;;;;;;5064562;28;20325;-68
2021/07/09 10:52:10;;;;;;;;;;;;;;;;;;5064406;28;19928;-67
2021/07/09 10:54:37;;;;;;;;;;;;;;;;;;5063450;28;19929;-68
2021/07/09 10:57:04;;;;;;;;;;;;;;;;;;5069355;28;19928;-68
2021/07/09 10:59:31;;;;;;;;;;;;;;;;;;5088660;28;19925;-68
2021/07/09 11:01:58;;;;;;;;;;;;;;;;;;5073562;28;20338;-67
2021/07/09 11:04:25;;;;;;;;;;;;;;;;;;5070628;28;19924;-68
2021/07/09 11:06:52;;;;;;;;;;;;;;;;;;5069185;28;20558;-69
2021/07/09 11:09:19;;;;;;;;;;;;;;;;;;5064073;28;19925;-69
2021/07/09 11:11:47;;;;;;;;;;;;;;;;;;5067908;28;19931;-69
2021/07/09 11:14:14;;;;;;;;;;;;;;;;;;5066370;28;19935;-69
2021/07/09 11:16:41;;;;;;;;;;;;;;;;;;5071849;28;20011;-69
2021/07/09 11:19:08;;;;;;;;;;;;;;;;;;5067842;28;19932;-69
2021/07/09 11:21:35;;;;;;;;;;;;;;;;;;5067225;28;19928;-68
2021/07/09 11:24:02;;;;;;;;;;;;;;;;;;5069534;28;20404;-68
2021/07/09 11:26:29;;;;;;;;;;;;;;;;;;5067680;28;20339;-69
2021/07/09 11:28:57;;;;;;;;;;;;;;;;;;5067663;28;19998;-70
2021/07/09 11:31:24;;;;;;;;;;;;;;;;;;5067994;28;19951;-69
2021/07/09 11:33:51;;;;;;;;;;;;;;;;;;5069142;28;19931;-69
2021/07/09 11:36:18;;;;;;;;;;;;;;;;;;5066813;28;19939;-70
2021/07/09 11:38:45;;;;;;;;;;;;;;;;;;5066985;28;19931;-67
2021/07/09 11:41:13;;;;;;;;;;;;;;;;;;5068822;28;20015;-68
2021/07/09 11:43:40;;;;;;;;;;;;;;;;;;5080830;28;19928;-69
2021/07/09 11:46:07;;;;;;;;;;;;;;;;;;5083338;28;19931;-69
2021/07/09 11:48:34;;;;;;;;;;;;;;;;;;5070223;28;20225;-69
2021/07/09 11:51:03;;;;;;;;;;;;;;;;;;5069308;28;19932;-68
2021/07/09 11:53:30;;;;;;;;;;;;;;;;;;5068451;28;19932;-69
2021/07/09 11:55:57;;;;;;;;;;;;;;;;;;5070173;28;19925;-68
2021/07/09 11:58:26;;;;;;;;;;;;;;;;;;5069941;28;19929;-67
2021/07/09 12:00:53;;;;;;;;;;;;;;;;;;5066182;28;19925;-67
2021/07/09 12:03:20;;;;;;;;;;;;;;;;;;5067490;28;19932;-67
2021/07/09 12:05:48;;;;;;;;;;;;;;;;;;5070060;28;20388;-67
2021/07/09 12:08:15;;;;;;;;;;;;;;;;;;5066573;28;20328;-67
2021/07/09 12:10:42;;;;;;;;;;;;;;;;;;5068109;28;19928;-69
2021/07/09 12:13:09;;;;;;;;;;;;;;;;;;5067705;28;19932;-65
2021/07/09 12:15:36;;;;;;;;;;;;;;;;;;5065126;28;19924;-66
2021/07/09 12:18:03;;;;;;;;;;;;;;;;;;5062887;28;19929;-69
2021/07/09 12:20:30;;;;;;;;;;;;;;;;;;5066349;28;20397;-68
2021/07/09 12:22:57;;;;;;;;;;;;;;;;;;5064644;28;19931;-67
2021/07/09 12:25:24;;;;;;;;;;;;;;;;;;5064858;28;20470;-68
2021/07/09 12:27:51;;;;;;;;;;;;;;;;;;5075435;28;19948;-67
2021/07/09 12:30:18;;;;;;;;;;;;;;;;;;5084389;28;19928;-68
2021/07/09 12:32:45;;;;;;;;;;;;;;;;;;5072236;28;19924;-69
2021/07/09 12:35:12;;;;;;;;;;;;;;;;;;5065845;28;20308;-69
2021/07/09 12:37:39;;;;;;;;;;;;;;;;;;5070261;28;20011;-67
2021/07/09 12:40:07;;;;;;;;;;;;;;;;;;5066376;28;19932;-69
2021/07/09 12:42:34;;;;;;;;;;;;;;;;;;5065682;28;20311;-68
2021/07/09 12:45:01;;;;;;;;;;;;;;;;;;5066633;28;19943;-71
2021/07/09 12:47:28;;;;;;;;;;;;;;;;;;5065649;28;20218;-69
2021/07/09 12:49:55;;;;;;;;;;;;;;;;;;5067374;28;19924;-69
2021/07/09 12:52:22;;;;;;;;;;;;;;;;;;5066092;28;19928;-68
2021/07/09 12:54:49;;;;;;;;;;;;;;;;;;5066859;28;19928;-69
2021/07/09 12:57:16;;;;;;;;;;;;;;;;;;5066365;28;19933;-68
2021/07/09 12:59:43;;;;;;;;;;;;;;;;;;5063108;28;20299;-67
2021/07/09 13:02:10;;;;;;;;;;;;;;;;;;5066681;28;19929;-70
2021/07/09 13:04:37;;;;;;;;;;;;;;;;;;5066689;28;19924;-70
2021/07/09 13:07:04;;;;;;;;;;;;;;;;;;5067184;28;20484;-68
2021/07/09 13:09:32;;;;;;;;;;;;;;;;;;5067054;28;20308;-70
2021/07/09 13:11:59;;;;;;;;;;;;;;;;;;5064095;28;19994;-68
2021/07/09 13:14:27;;;;;;;;;;;;;;;;;;5076383;28;20016;-69
2021/07/09 13:16:54;;;;;;;;;;;;;;;;;;5074653;28;20157;-68
2021/07/09 13:19:21;;;;;;;;;;;;;;;;;;5068702;28;20400;-69
2021/07/09 13:21:48;;;;;;;;;;;;;;;;;;5066857;28;19928;-69
2021/07/09 13:24:15;;;;;;;;;;;;;;;;;;5066458;28;19928;-68
2021/07/09 13:26:42;;;;;;;;;;;;;;;;;;5067963;28;19950;-70
2021/07/09 13:29:09;;;;;;;;;;;;;;;;;;5069393;28;19924;-69
2021/07/09 13:31:36;;;;;;;;;;;;;;;;;;5067596;28;20312;-69
2021/07/09 13:34:03;;;;;;;;;;;;;;;;;;5068962;28;19935;-69
2021/07/09 13:36:30;;;;;;;;;;;;;;;;;;5065666;28;19931;-69
2021/07/09 13:38:57;;;;;;;;;;;;;;;;;;5062876;28;19931;-69
2021/07/09 13:41:24;;;;;;;;;;;;;;;;;;5068982;28;19932;-69
2021/07/09 13:43:51;;;;;;;;;;;;;;;;;;5077992;28;19924;-69
2021/07/09 13:46:18;;;;;;;;;;;;;;;;;;5064591;28;19931;-70
2021/07/09 13:48:45;;;;;;;;;;;;;;;;;;5063287;28;19932;-70
2021/07/09 13:51:14;;;;;;;;;;;;;;;;;;5064126;28;19925;-69
2021/07/09 13:53:41;;;;;;;;;;;;;;;;;;5062061;28;20497;-69
2021/07/09 13:56:08;;;;;;;;;;;;;;;;;;5059765;28;19931;-69
2021/07/09 13:58:35;;;;;;;;;;;;;;;;;;5063206;28;20391;-69
2021/07/09 14:01:05;;;;;;;;;;;;;;;;;;5069104;28;20019;-70
2021/07/09 14:03:32;;;;;;;;;;;;;;;;;;5071127;28;19928;-69
2021/07/09 14:05:59;;;;;;;;;;;;;;;;;;5065436;28;19932;-69
2021/07/09 14:08:26;;;;;;;;;;;;;;;;;;5067049;28;20031;-69
2021/07/09 14:10:55;;;;;;;;;;;;;;;;;;5065828;28;19932;-70
2021/07/09 14:13:22;;;;;;;;;;;;;;;;;;5067716;28;20442;-68
2021/07/09 14:15:49;;;;;;;;;;;;;;;;;;5063022;28;19951;-68
2021/07/09 14:18:16;;;;;;;;;;;;;;;;;;5066713;28;19929;-69
2021/07/09 14:20:43;;;;;;;;;;;;;;;;;;5064203;28;20296;-69
2021/07/09 14:23:10;;;;;;;;;;;;;;;;;;5067832;28;19928;-67
2021/07/09 14:25:37;;;;;;;;;;;;;;;;;;5064218;28;19936;-66
2021/07/09 14:28:07;;;;;;;;;;;;;;;;;;5059892;28;19932;-69
2021/07/09 14:30:34;;;;;;;;;;;;;;;;;;5065991;28;20003;-66
2021/07/09 14:33:00;;;;;;;;;;;;;;;;;;5068020;28;19924;-68
2021/07/09 14:35:27;;;;;;;;;;;;;;;;;;5065314;28;20430;-66
2021/07/09 14:37:54;;;;;;;;;;;;;;;;;;5065499;28;19932;-68
2021/07/09 14:40:22;;;;;;;;;;;;;;;;;;5063487;28;20985;-69
2021/07/09 14:42:49;;;;;;;;;;;;;;;;;;5063880;28;19998;-69
2021/07/09 14:45:16;;;;;;;;;;;;;;;;;;5064409;28;19932;-67
2021/07/09 14:47:43;;;;;;;;;;;;;;;;;;5074420;28;19924;-71
2021/07/09 14:50:10;;;;;;;;;;;;;;;;;;5071331;28;19924;-67
2021/07/09 14:52:37;;;;;;;;;;;;;;;;;;5062600;28;19931;-65
2021/07/09 14:55:04;;;;;;;;;;;;;;;;;;5064947;28;19928;-66
2021/07/09 14:57:31;;;;;;;;;;;;;;;;;;5065505;28;20874;-65
2021/07/09 14:59:58;;;;;;;;;;;;;;;;;;5064598;28;20292;-66
2021/07/09 15:02:25;;;;;;;;;;;;;;;;;;5061647;28;19924;-66
2021/07/09 15:04:52;;;;;;;;;;;;;;;;;;5063664;28;19961;-66
2021/07/09 15:07:19;;;;;;;;;;;;;;;;;;5065881;28;20385;-65
2021/07/09 15:09:46;;;;;;;;;;;;;;;;;;5065116;28;20024;-67
2021/07/09 15:12:13;;;;;;;;;;;;;;;;;;5066258;28;20349;-65
2021/07/09 15:14:40;;;;;;;;;;;;;;;;;;5067879;28;19929;-68
2021/07/09 15:17:07;;;;;;;;;;;;;;;;;;5066426;28;19935;-66
2021/07/09 15:19:34;;;;;;;;;;;;;;;;;;5063256;28;20009;-66
2021/07/09 15:22:01;;;;;;;;;;;;;;;;;;5065822;28;20401;-66
2021/07/09 15:24:28;;;;;;;;;;;;;;;;;;5063554;28;19924;-66
2021/07/09 15:26:55;;;;;;;;;;;;;;;;;;5064813;28;19932;-66
2021/07/09 15:29:22;;;;;;;;;;;;;;;;;;5065773;28;19934;-64
2021/07/09 15:31:49;;;;;;;;;;;;;;;;;;5064350;28;20419;-64
2021/07/09 15:34:16;;;;;;;;;;;;;;;;;;5072760;28;20015;-66
2021/07/09 15:36:43;;;;;;;;;;;;;;;;;;5068786;28;19935;-66
2021/07/09 15:39:11;;;;;;;;;;;;;;;;;;5064248;28;19939;-67
2021/07/09 15:41:38;;;;;;;;;;;;;;;;;;5070189;28;19978;-64
2021/07/09 15:44:05;;;;;;;;;;;;;;;;;;5066338;28;19928;-65
2021/07/09 15:46:31;;;;;;;;;;;;;;;;;;5070850;28;20011;-66
2021/07/09 15:48:58;;;;;;;;;;;;;;;;;;5071056;28;20385;-66
2021/07/09 15:51:25;;;;;;;;;;;;;;;;;;5069815;28;20377;-65
2021/07/09 15:53:52;;;;;;;;;;;;;;;;;;5069181;28;19951;-67
2021/07/09 15:56:19;;;;;;;;;;;;;;;;;;5075927;28;19925;-67
2021/07/09 15:58:46;;;;;;;;;;;;;;;;;;5084589;28;19931;-67
2021/07/09 16:01:13;;;;;;;;;;;;;;;;;;5080737;28;20396;-68
2021/07/09 16:03:40;;;;;;;;;;;;;;;;;;5081098;28;19925;-68
2021/07/09 16:06:07;;;;;;;;;;;;;;;;;;5082744;28;19970;-68
2021/07/09 16:08:34;;;;;;;;;;;;;;;;;;5078153;28;19935;-67
2021/07/09 16:11:01;;;;;;;;;;;;;;;;;;5068706;28;19924;-66
2021/07/09 16:13:28;;;;;;;;;;;;;;;;;;5069382;28;19924;-68
2021/07/09 16:15:55;;;;;;;;;;;;;;;;;;5070170;28;20327;-67
2021/07/09 16:18:22;;;;;;;;;;;;;;;;;;5068850;28;20016;-66
2021/07/09 16:20:49;;;;;;;;;;;;;;;;;;5066487;28;19935;-68
2021/07/09 16:23:16;;;;;;;;;;;;;;;;;;5066453;28;19931;-67
2021/07/09 16:25:43;;;;;;;;;;;;;;;;;;5066251;28;19932;-68
2021/07/09 16:28:10;;;;;;;;;;;;;;;;;;5067250;28;19925;-69
2021/07/09 16:30:37;;;;;;;;;;;;;;;;;;5066880;28;20377;-69
2021/07/09 16:33:04;;;;;;;;;;;;;;;;;;5069686;28;19928;-68
2021/07/09 16:35:31;;;;;;;;;;;;;;;;;;5070273;28;20006;-68
2021/07/09 16:37:58;;;;;;;;;;;;;;;;;;5067403;28;20388;-69
2021/07/09 16:40:25;;;;;;;;;;;;;;;;;;5068350;28;19924;-69
2021/07/09 16:42:53;;;;;;;;;;;;;;;;;;5067425;28;19936;-69
2021/07/09 16:45:20;;;;;;;;;;;;;;;;;;5064247;28;19932;-69
2021/07/09 16:47:47;;;;;;;;;;;;;;;;;;5069160;28;19928;-69